sensor_id;sensor_type;location;lat;lon;timestamp;temperature;humidity
45729;DHT22;31439;53.512;10.206;2023-08-12T00:00:08;20.70;99.90
45729;DHT22;31439;53.512;10.206;2023-08-12T00:02:44;20.70;99.90
45729;DHT22;31439;53.512;10.206;2023-08-12T00:05:10;20.70;99.90
45729;DHT22;31439;53.512;10.206;2023-08-12T00:07:37;20.60;99.90
45729;DHT22;31439;53.512;10.206;2023-08-12T00:10:04;20.70;99.90
45729;DHT22;31439;53.512;10.206;2023-08-12T00:12:32;20.70;99.90
45729;DHT22;31439;53.512;10.206;2023-08-12T00:14:58;20.70;99.90
45729;DHT22;31439;53.512;10.206;2023-08-12T00:17:23;20.70;99.90
45729;DHT22;31439;53.512;10.206;2023-08-12T00:19:49;20.60;99.90
45729;DHT22;31439;53.512;10.206;2023-08-12T00:22:15;20.60;99.90
45729;DHT22;31439;53.512;10.206;2023-08-12T00:24:40;20.60;99.90
45729;DHT22;31439;53.512;10.206;2023-08-12T00:27:06;20.60;99.90
45729;DHT22;31439;53.512;10.206;2023-08-12T00:29:34;20.60;99.90
45729;DHT22;31439;53.512;10.206;2023-08-12T00:32:00;20.60;99.90
45729;DHT22;31439;53.512;10.206;2023-08-12T00:34:26;20.60;99.90
45729;DHT22;31439;53.512;10.206;2023-08-12T00:36:51;20.60;99.90
45729;DHT22;31439;53.512;10.206;2023-08-12T00:39:17;20.60;99.90
45729;DHT22;31439;53.512;10.206;2023-08-12T00:41:42;20.50;99.90
45729;DHT22;31439;53.512;10.206;2023-08-12T00:44:08;20.50;99.90
45729;DHT22;31439;53.512;10.206;2023-08-12T00:46:35;20.50;99.90
45729;DHT22;31439;53.512;10.206;2023-08-12T00:49:00;20.50;99.90
45729;DHT22;31439;53.512;10.206;2023-08-12T00:51:27;20.50;99.90
45729;DHT22;31439;53.512;10.206;2023-08-12T00:53:52;20.50;99.90
45729;DHT22;31439;53.512;10.206;2023-08-12T00:56:19;20.50;99.90
45729;DHT22;31439;53.512;10.206;2023-08-12T00:58:45;20.50;99.90
45729;DHT22;31439;53.512;10.206;2023-08-12T01:01:11;20.40;99.90
45729;DHT22;31439;53.512;10.206;2023-08-12T01:03:37;20.50;99.90
45729;DHT22;31439;53.512;10.206;2023-08-12T01:06:03;20.40;99.90
45729;DHT22;31439;53.512;10.206;2023-08-12T01:08:31;20.40;99.90
45729;DHT22;31439;53.512;10.206;2023-08-12T01:11:16;20.40;99.90
45729;DHT22;31439;53.512;10.206;2023-08-12T01:13:56;20.50;99.90
45729;DHT22;31439;53.512;10.206;2023-08-12T01:16:23;20.50;99.90
45729;DHT22;31439;53.512;10.206;2023-08-12T01:18:49;20.40;99.90
45729;DHT22;31439;53.512;10.206;2023-08-12T01:21:16;20.40;99.90
45729;DHT22;31439;53.512;10.206;2023-08-12T01:23:43;20.40;99.90
45729;DHT22;31439;53.512;10.206;2023-08-12T01:26:08;20.30;99.90
45729;DHT22;31439;53.512;10.206;2023-08-12T01:28:34;20.30;99.90
45729;DHT22;31439;53.512;10.206;2023-08-12T01:33:49;20.30;99.90
45729;DHT22;31439;53.512;10.206;2023-08-12T01:36:19;20.20;99.90
45729;DHT22;31439;53.512;10.206;2023-08-12T01:38:46;20.20;99.90
45729;DHT22;31439;53.512;10.206;2023-08-12T01:41:13;20.20;99.90
45729;DHT22;31439;53.512;10.206;2023-08-12T01:43:40;20.20;99.90
45729;DHT22;31439;53.512;10.206;2023-08-12T01:46:06;20.20;99.90
45729;DHT22;31439;53.512;10.206;2023-08-12T01:48:32;20.20;99.90
45729;DHT22;31439;53.512;10.206;2023-08-12T01:50:57;20.20;99.90
45729;DHT22;31439;53.512;10.206;2023-08-12T01:53:23;20.20;99.90
45729;DHT22;31439;53.512;10.206;2023-08-12T01:55:49;20.20;99.90
45729;DHT22;31439;53.512;10.206;2023-08-12T01:58:16;20.10;99.90
45729;DHT22;31439;53.512;10.206;2023-08-12T02:00:41;20.10;99.90
45729;DHT22;31439;53.512;10.206;2023-08-12T02:03:07;20.10;99.90
45729;DHT22;31439;53.512;10.206;2023-08-12T02:05:33;20.10;99.90
45729;DHT22;31439;53.512;10.206;2023-08-12T02:07:59;20.10;99.90
45729;DHT22;31439;53.512;10.206;2023-08-12T02:10:24;20.10;99.90
45729;DHT22;31439;53.512;10.206;2023-08-12T02:12:50;20.10;99.90
45729;DHT22;31439;53.512;10.206;2023-08-12T02:15:15;20.10;99.90
45729;DHT22;31439;53.512;10.206;2023-08-12T02:17:41;20.10;99.90
45729;DHT22;31439;53.512;10.206;2023-08-12T02:20:07;20.10;99.90
45729;DHT22;31439;53.512;10.206;2023-08-12T02:22:33;20.10;99.90
45729;DHT22;31439;53.512;10.206;2023-08-12T02:24:58;20.00;99.90
45729;DHT22;31439;53.512;10.206;2023-08-12T02:27:24;20.00;99.90
45729;DHT22;31439;53.512;10.206;2023-08-12T02:29:49;20.00;99.90
45729;DHT22;31439;53.512;10.206;2023-08-12T02:32:15;20.00;99.90
45729;DHT22;31439;53.512;10.206;2023-08-12T02:34:40;20.10;99.90
45729;DHT22;31439;53.512;10.206;2023-08-12T02:37:06;20.00;99.90
45729;DHT22;31439;53.512;10.206;2023-08-12T02:39:32;20.00;99.90
45729;DHT22;31439;53.512;10.206;2023-08-12T02:41:57;19.90;99.90
45729;DHT22;31439;53.512;10.206;2023-08-12T02:44:23;19.90;99.90
45729;DHT22;31439;53.512;10.206;2023-08-12T02:46:48;19.90;99.90
45729;DHT22;31439;53.512;10.206;2023-08-12T02:49:14;19.90;99.90
45729;DHT22;31439;53.512;10.206;2023-08-12T02:51:39;19.80;99.90
45729;DHT22;31439;53.512;10.206;2023-08-12T02:54:05;19.90;99.90
45729;DHT22;31439;53.512;10.206;2023-08-12T02:56:31;19.80;99.90
45729;DHT22;31439;53.512;10.206;2023-08-12T02:58:56;19.80;99.90
45729;DHT22;31439;53.512;10.206;2023-08-12T03:01:22;19.80;99.90
45729;DHT22;31439;53.512;10.206;2023-08-12T03:03:47;19.80;99.90
45729;DHT22;31439;53.512;10.206;2023-08-12T03:06:13;19.80;99.90
45729;DHT22;31439;53.512;10.206;2023-08-12T03:08:39;19.80;99.90
45729;DHT22;31439;53.512;10.206;2023-08-12T03:11:04;19.80;99.90
45729;DHT22;31439;53.512;10.206;2023-08-12T03:13:30;19.80;99.90
45729;DHT22;31439;53.512;10.206;2023-08-12T03:15:56;19.80;99.90
45729;DHT22;31439;53.512;10.206;2023-08-12T03:18:22;19.80;99.90
45729;DHT22;31439;53.512;10.206;2023-08-12T03:20:47;19.70;99.90
45729;DHT22;31439;53.512;10.206;2023-08-12T03:23:14;19.70;99.90
45729;DHT22;31439;53.512;10.206;2023-08-12T03:25:39;19.70;99.90
45729;DHT22;31439;53.512;10.206;2023-08-12T03:28:05;19.70;99.90
45729;DHT22;31439;53.512;10.206;2023-08-12T03:30:30;19.60;99.90
45729;DHT22;31439;53.512;10.206;2023-08-12T03:32:56;19.60;99.90
45729;DHT22;31439;53.512;10.206;2023-08-12T03:35:22;19.60;99.90
45729;DHT22;31439;53.512;10.206;2023-08-12T03:37:47;19.50;99.90
45729;DHT22;31439;53.512;10.206;2023-08-12T03:40:13;19.50;99.90
45729;DHT22;31439;53.512;10.206;2023-08-12T03:42:39;19.50;99.90
45729;DHT22;31439;53.512;10.206;2023-08-12T03:45:05;19.50;99.90
45729;DHT22;31439;53.512;10.206;2023-08-12T03:47:31;19.50;99.90
45729;DHT22;31439;53.512;10.206;2023-08-12T03:49:57;19.50;99.90
45729;DHT22;31439;53.512;10.206;2023-08-12T03:52:22;19.60;99.90
45729;DHT22;31439;53.512;10.206;2023-08-12T03:54:48;19.50;99.90
45729;DHT22;31439;53.512;10.206;2023-08-12T03:57:14;19.50;99.90
45729;DHT22;31439;53.512;10.206;2023-08-12T03:59:39;19.50;99.90
45729;DHT22;31439;53.512;10.206;2023-08-12T04:02:05;19.40;99.90
45729;DHT22;31439;53.512;10.206;2023-08-12T04:04:31;19.40;99.90
45729;DHT22;31439;53.512;10.206;2023-08-12T04:06:57;19.50;99.90
45729;DHT22;31439;53.512;10.206;2023-08-12T04:09:22;19.50;99.90
45729;DHT22;31439;53.512;10.206;2023-08-12T04:11:48;19.50;99.90
45729;DHT22;31439;53.512;10.206;2023-08-12T04:14:14;19.50;99.90
45729;DHT22;31439;53.512;10.206;2023-08-12T04:16:40;19.50;99.90
45729;DHT22;31439;53.512;10.206;2023-08-12T04:19:05;19.50;99.90
45729;DHT22;31439;53.512;10.206;2023-08-12T04:21:31;19.50;99.90
45729;DHT22;31439;53.512;10.206;2023-08-12T04:23:57;19.50;99.90
45729;DHT22;31439;53.512;10.206;2023-08-12T04:26:22;19.50;99.90
45729;DHT22;31439;53.512;10.206;2023-08-12T04:28:48;19.50;99.90
45729;DHT22;31439;53.512;10.206;2023-08-12T04:31:13;19.50;99.90
45729;DHT22;31439;53.512;10.206;2023-08-12T04:33:39;19.50;99.90
45729;DHT22;31439;53.512;10.206;2023-08-12T04:36:05;19.40;99.90
45729;DHT22;31439;53.512;10.206;2023-08-12T04:38:31;19.40;99.90
45729;DHT22;31439;53.512;10.206;2023-08-12T04:40:56;19.40;99.90
45729;DHT22;31439;53.512;10.206;2023-08-12T04:43:22;19.40;99.90
45729;DHT22;31439;53.512;10.206;2023-08-12T04:45:48;19.40;99.90
45729;DHT22;31439;53.512;10.206;2023-08-12T04:48:14;19.30;99.90
45729;DHT22;31439;53.512;10.206;2023-08-12T04:50:41;19.30;99.90
45729;DHT22;31439;53.512;10.206;2023-08-12T04:53:07;19.30;99.90
45729;DHT22;31439;53.512;10.206;2023-08-12T04:55:34;19.30;99.90
45729;DHT22;31439;53.512;10.206;2023-08-12T04:58:00;19.30;99.90
45729;DHT22;31439;53.512;10.206;2023-08-12T05:00:26;19.30;99.90
45729;DHT22;31439;53.512;10.206;2023-08-12T05:02:51;19.30;99.90
45729;DHT22;31439;53.512;10.206;2023-08-12T05:05:17;19.30;99.90
45729;DHT22;31439;53.512;10.206;2023-08-12T05:07:42;19.30;99.90
45729;DHT22;31439;53.512;10.206;2023-08-12T05:10:10;19.30;99.90
45729;DHT22;31439;53.512;10.206;2023-08-12T05:12:35;19.40;99.90
45729;DHT22;31439;53.512;10.206;2023-08-12T05:15:01;19.30;99.90
45729;DHT22;31439;53.512;10.206;2023-08-12T05:17:26;19.30;99.90
45729;DHT22;31439;53.512;10.206;2023-08-12T05:19:52;19.30;99.90
45729;DHT22;31439;53.512;10.206;2023-08-12T05:22:17;19.30;99.90
45729;DHT22;31439;53.512;10.206;2023-08-12T05:24:43;19.30;99.90
45729;DHT22;31439;53.512;10.206;2023-08-12T05:27:08;19.30;99.90
45729;DHT22;31439;53.512;10.206;2023-08-12T05:29:34;19.30;99.90
45729;DHT22;31439;53.512;10.206;2023-08-12T05:31:59;19.40;99.90
45729;DHT22;31439;53.512;10.206;2023-08-12T05:34:25;19.40;99.90
45729;DHT22;31439;53.512;10.206;2023-08-12T05:36:52;19.40;99.90
45729;DHT22;31439;53.512;10.206;2023-08-12T05:39:17;19.40;99.90
45729;DHT22;31439;53.512;10.206;2023-08-12T05:41:43;19.40;99.90
45729;DHT22;31439;53.512;10.206;2023-08-12T05:44:10;19.40;99.90
45729;DHT22;31439;53.512;10.206;2023-08-12T05:46:35;19.40;99.90
45729;DHT22;31439;53.512;10.206;2023-08-12T05:49:01;19.40;99.90
45729;DHT22;31439;53.512;10.206;2023-08-12T05:51:27;19.40;99.90
45729;DHT22;31439;53.512;10.206;2023-08-12T05:53:52;19.40;99.90
45729;DHT22;31439;53.512;10.206;2023-08-12T05:56:18;19.40;99.90
45729;DHT22;31439;53.512;10.206;2023-08-12T05:58:43;19.40;99.90
45729;DHT22;31439;53.512;10.206;2023-08-12T06:01:09;19.40;99.90
45729;DHT22;31439;53.512;10.206;2023-08-12T06:03:35;19.40;99.90
45729;DHT22;31439;53.512;10.206;2023-08-12T06:06:00;19.50;99.90
45729;DHT22;31439;53.512;10.206;2023-08-12T06:08:26;19.40;99.90
45729;DHT22;31439;53.512;10.206;2023-08-12T06:10:51;19.40;99.90
45729;DHT22;31439;53.512;10.206;2023-08-12T06:13:17;19.40;99.90
45729;DHT22;31439;53.512;10.206;2023-08-12T06:15:43;19.40;99.90
45729;DHT22;31439;53.512;10.206;2023-08-12T06:18:08;19.40;99.90
45729;DHT22;31439;53.512;10.206;2023-08-12T06:20:34;19.30;99.90
45729;DHT22;31439;53.512;10.206;2023-08-12T06:22:59;19.30;99.90
45729;DHT22;31439;53.512;10.206;2023-08-12T06:25:25;19.30;99.90
45729;DHT22;31439;53.512;10.206;2023-08-12T06:27:50;19.30;99.90
45729;DHT22;31439;53.512;10.206;2023-08-12T06:30:21;19.30;99.90
45729;DHT22;31439;53.512;10.206;2023-08-12T06:32:50;19.30;99.90
45729;DHT22;31439;53.512;10.206;2023-08-12T06:35:15;19.30;99.90
45729;DHT22;31439;53.512;10.206;2023-08-12T06:37:41;19.30;99.90
45729;DHT22;31439;53.512;10.206;2023-08-12T06:40:07;19.20;99.90
45729;DHT22;31439;53.512;10.206;2023-08-12T06:42:40;19.20;99.90
45729;DHT22;31439;53.512;10.206;2023-08-12T06:45:06;19.30;99.90
45729;DHT22;31439;53.512;10.206;2023-08-12T06:47:35;19.30;99.90
45729;DHT22;31439;53.512;10.206;2023-08-12T06:50:07;19.30;99.90
45729;DHT22;31439;53.512;10.206;2023-08-12T06:52:33;19.30;99.90
45729;DHT22;31439;53.512;10.206;2023-08-12T06:54:58;19.30;99.90
45729;DHT22;31439;53.512;10.206;2023-08-12T06:57:24;19.30;99.90
45729;DHT22;31439;53.512;10.206;2023-08-12T06:59:50;19.40;99.90
45729;DHT22;31439;53.512;10.206;2023-08-12T07:02:15;19.40;99.90
45729;DHT22;31439;53.512;10.206;2023-08-12T07:04:41;19.50;99.90
45729;DHT22;31439;53.512;10.206;2023-08-12T07:07:06;19.50;99.90
45729;DHT22;31439;53.512;10.206;2023-08-12T07:09:32;19.50;99.90
45729;DHT22;31439;53.512;10.206;2023-08-12T07:11:57;19.60;99.90
45729;DHT22;31439;53.512;10.206;2023-08-12T07:14:23;19.70;99.90
45729;DHT22;31439;53.512;10.206;2023-08-12T07:16:49;19.70;99.90
45729;DHT22;31439;53.512;10.206;2023-08-12T07:19:14;19.70;99.90
45729;DHT22;31439;53.512;10.206;2023-08-12T07:21:40;19.70;99.90
45729;DHT22;31439;53.512;10.206;2023-08-12T07:24:06;19.70;99.90
45729;DHT22;31439;53.512;10.206;2023-08-12T07:26:32;19.80;99.90
45729;DHT22;31439;53.512;10.206;2023-08-12T07:28:57;19.90;99.90
45729;DHT22;31439;53.512;10.206;2023-08-12T07:31:23;19.90;99.90
45729;DHT22;31439;53.512;10.206;2023-08-12T07:33:48;19.80;99.90
45729;DHT22;31439;53.512;10.206;2023-08-12T07:36:14;19.90;99.90
45729;DHT22;31439;53.512;10.206;2023-08-12T07:38:40;19.90;99.90
45729;DHT22;31439;53.512;10.206;2023-08-12T07:41:05;20.00;99.90
45729;DHT22;31439;53.512;10.206;2023-08-12T07:43:31;20.00;99.90
45729;DHT22;31439;53.512;10.206;2023-08-12T07:45:56;20.00;99.90
45729;DHT22;31439;53.512;10.206;2023-08-12T07:48:22;20.00;99.90
45729;DHT22;31439;53.512;10.206;2023-08-12T07:50:55;20.00;99.90
45729;DHT22;31439;53.512;10.206;2023-08-12T07:53:21;20.00;99.90
45729;DHT22;31439;53.512;10.206;2023-08-12T07:55:46;20.00;99.90
45729;DHT22;31439;53.512;10.206;2023-08-12T07:58:12;20.00;99.90
45729;DHT22;31439;53.512;10.206;2023-08-12T08:00:38;20.00;99.90
45729;DHT22;31439;53.512;10.206;2023-08-12T08:03:04;20.10;99.90
45729;DHT22;31439;53.512;10.206;2023-08-12T08:05:30;20.10;99.90
45729;DHT22;31439;53.512;10.206;2023-08-12T08:07:56;20.20;99.90
45729;DHT22;31439;53.512;10.206;2023-08-12T08:10:21;20.20;99.90
45729;DHT22;31439;53.512;10.206;2023-08-12T08:12:47;20.30;99.90
45729;DHT22;31439;53.512;10.206;2023-08-12T08:15:12;20.30;99.90
45729;DHT22;31439;53.512;10.206;2023-08-12T08:17:38;20.30;99.90
45729;DHT22;31439;53.512;10.206;2023-08-12T08:20:04;20.30;99.90
45729;DHT22;31439;53.512;10.206;2023-08-12T08:22:31;20.50;99.90
45729;DHT22;31439;53.512;10.206;2023-08-12T08:24:57;20.80;99.90
45729;DHT22;31439;53.512;10.206;2023-08-12T08:27:22;21.00;99.90
45729;DHT22;31439;53.512;10.206;2023-08-12T08:29:48;21.00;99.90
45729;DHT22;31439;53.512;10.206;2023-08-12T08:32:14;20.90;99.90
45729;DHT22;31439;53.512;10.206;2023-08-12T08:34:42;20.80;99.90
45729;DHT22;31439;53.512;10.206;2023-08-12T08:37:07;20.80;99.90
45729;DHT22;31439;53.512;10.206;2023-08-12T08:39:33;20.80;99.90
45729;DHT22;31439;53.512;10.206;2023-08-12T08:41:58;20.80;99.90
45729;DHT22;31439;53.512;10.206;2023-08-12T08:44:29;20.70;99.90
45729;DHT22;31439;53.512;10.206;2023-08-12T08:46:58;20.70;99.90
45729;DHT22;31439;53.512;10.206;2023-08-12T08:49:25;20.80;99.90
45729;DHT22;31439;53.512;10.206;2023-08-12T08:51:51;20.80;99.90
45729;DHT22;31439;53.512;10.206;2023-08-12T08:54:19;20.80;99.90
45729;DHT22;31439;53.512;10.206;2023-08-12T08:56:45;20.90;99.90
45729;DHT22;31439;53.512;10.206;2023-08-12T08:59:11;20.90;99.90
45729;DHT22;31439;53.512;10.206;2023-08-12T09:01:36;21.00;99.90
45729;DHT22;31439;53.512;10.206;2023-08-12T09:04:03;21.00;99.90
45729;DHT22;31439;53.512;10.206;2023-08-12T09:06:31;21.00;99.90
45729;DHT22;31439;53.512;10.206;2023-08-12T09:08:58;21.00;99.90
45729;DHT22;31439;53.512;10.206;2023-08-12T09:11:25;21.00;99.90
45729;DHT22;31439;53.512;10.206;2023-08-12T09:13:51;21.00;99.90
45729;DHT22;31439;53.512;10.206;2023-08-12T09:16:17;21.10;99.90
45729;DHT22;31439;53.512;10.206;2023-08-12T09:18:43;21.10;99.90
45729;DHT22;31439;53.512;10.206;2023-08-12T09:21:09;21.10;99.90
45729;DHT22;31439;53.512;10.206;2023-08-12T09:23:37;21.10;99.90
45729;DHT22;31439;53.512;10.206;2023-08-12T09:26:14;21.20;99.90
45729;DHT22;31439;53.512;10.206;2023-08-12T09:28:43;21.20;99.90
45729;DHT22;31439;53.512;10.206;2023-08-12T09:31:24;21.20;99.90
45729;DHT22;31439;53.512;10.206;2023-08-12T09:33:51;21.30;99.90
45729;DHT22;31439;53.512;10.206;2023-08-12T09:36:23;21.30;99.90
45729;DHT22;31439;53.512;10.206;2023-08-12T09:38:51;21.40;99.90
45729;DHT22;31439;53.512;10.206;2023-08-12T09:41:18;21.50;99.90
45729;DHT22;31439;53.512;10.206;2023-08-12T09:43:44;21.50;99.90
45729;DHT22;31439;53.512;10.206;2023-08-12T09:46:13;21.50;99.90
45729;DHT22;31439;53.512;10.206;2023-08-12T09:48:39;21.40;99.90
45729;DHT22;31439;53.512;10.206;2023-08-12T09:51:05;21.40;99.90
45729;DHT22;31439;53.512;10.206;2023-08-12T09:53:32;21.40;99.90
45729;DHT22;31439;53.512;10.206;2023-08-12T09:56:08;21.40;99.90
45729;DHT22;31439;53.512;10.206;2023-08-12T09:58:37;21.40;99.90
45729;DHT22;31439;53.512;10.206;2023-08-12T10:01:06;21.40;99.90
45729;DHT22;31439;53.512;10.206;2023-08-12T10:03:33;21.40;99.90
45729;DHT22;31439;53.512;10.206;2023-08-12T10:06:01;21.40;99.90
45729;DHT22;31439;53.512;10.206;2023-08-12T10:08:29;21.40;99.90
45729;DHT22;31439;53.512;10.206;2023-08-12T10:10:55;21.40;99.90
45729;DHT22;31439;53.512;10.206;2023-08-12T10:13:21;21.40;99.90
45729;DHT22;31439;53.512;10.206;2023-08-12T10:15:49;21.40;99.90
45729;DHT22;31439;53.512;10.206;2023-08-12T10:18:15;21.40;99.90
45729;DHT22;31439;53.512;10.206;2023-08-12T10:20:41;21.50;99.90
45729;DHT22;31439;53.512;10.206;2023-08-12T10:23:07;21.60;99.90
45729;DHT22;31439;53.512;10.206;2023-08-12T10:25:36;21.70;99.90
45729;DHT22;31439;53.512;10.206;2023-08-12T10:28:03;21.70;99.90
45729;DHT22;31439;53.512;10.206;2023-08-12T10:30:29;21.70;99.90
45729;DHT22;31439;53.512;10.206;2023-08-12T10:32:55;21.90;99.90
45729;DHT22;31439;53.512;10.206;2023-08-12T10:35:21;22.00;99.90
45729;DHT22;31439;53.512;10.206;2023-08-12T10:37:50;22.00;99.90
45729;DHT22;31439;53.512;10.206;2023-08-12T10:40:23;21.90;99.90
45729;DHT22;31439;53.512;10.206;2023-08-12T10:42:49;21.90;99.90
45729;DHT22;31439;53.512;10.206;2023-08-12T10:45:18;21.80;99.90
45729;DHT22;31439;53.512;10.206;2023-08-12T10:50:31;21.60;99.90
45729;DHT22;31439;53.512;10.206;2023-08-12T10:53:20;21.50;99.90
45729;DHT22;31439;53.512;10.206;2023-08-12T10:55:48;21.50;99.90
45729;DHT22;31439;53.512;10.206;2023-08-12T10:58:57;21.50;99.90
45729;DHT22;31439;53.512;10.206;2023-08-12T11:01:19;21.60;99.90
45729;DHT22;31439;53.512;10.206;2023-08-12T11:03:46;21.60;99.90
45729;DHT22;31439;53.512;10.206;2023-08-12T11:06:12;21.70;99.90
45729;DHT22;31439;53.512;10.206;2023-08-12T11:08:47;21.80;99.90
45729;DHT22;31439;53.512;10.206;2023-08-12T11:11:22;21.90;99.90
45729;DHT22;31439;53.512;10.206;2023-08-12T11:13:55;22.00;99.90
45729;DHT22;31439;53.512;10.206;2023-08-12T11:16:34;22.10;99.90
45729;DHT22;31439;53.512;10.206;2023-08-12T11:19:04;22.00;99.90
45729;DHT22;31439;53.512;10.206;2023-08-12T11:21:30;22.10;99.90
45729;DHT22;31439;53.512;10.206;2023-08-12T11:23:55;22.10;99.90
45729;DHT22;31439;53.512;10.206;2023-08-12T11:26:24;22.10;99.90
45729;DHT22;31439;53.512;10.206;2023-08-12T11:28:50;22.20;99.90
45729;DHT22;31439;53.512;10.206;2023-08-12T11:31:16;22.10;99.90
45729;DHT22;31439;53.512;10.206;2023-08-12T11:33:48;22.10;99.90
45729;DHT22;31439;53.512;10.206;2023-08-12T11:36:18;22.00;99.90
45729;DHT22;31439;53.512;10.206;2023-08-12T11:38:45;22.00;99.90
45729;DHT22;31439;53.512;10.206;2023-08-12T11:41:11;21.90;99.90
45729;DHT22;31439;53.512;10.206;2023-08-12T11:43:37;21.90;99.90
45729;DHT22;31439;53.512;10.206;2023-08-12T11:46:03;21.90;99.90
45729;DHT22;31439;53.512;10.206;2023-08-12T11:48:29;21.90;99.90
45729;DHT22;31439;53.512;10.206;2023-08-12T11:50:55;21.90;99.90
45729;DHT22;31439;53.512;10.206;2023-08-12T11:53:21;21.90;99.90
45729;DHT22;31439;53.512;10.206;2023-08-12T11:55:47;21.90;99.90
45729;DHT22;31439;53.512;10.206;2023-08-12T11:58:14;21.90;99.90
45729;DHT22;31439;53.512;10.206;2023-08-12T12:00:44;21.80;99.90
45729;DHT22;31439;53.512;10.206;2023-08-12T12:03:09;21.80;99.90
45729;DHT22;31439;53.512;10.206;2023-08-12T12:05:35;21.80;99.90
45729;DHT22;31439;53.512;10.206;2023-08-12T12:08:01;21.70;99.90
45729;DHT22;31439;53.512;10.206;2023-08-12T12:10:28;21.70;99.90
45729;DHT22;31439;53.512;10.206;2023-08-12T12:12:55;21.70;99.90
45729;DHT22;31439;53.512;10.206;2023-08-12T12:18:43;21.40;99.90
45729;DHT22;31439;53.512;10.206;2023-08-12T12:21:09;21.80;99.90
45729;DHT22;31439;53.512;10.206;2023-08-12T12:23:37;21.80;99.90
45729;DHT22;31439;53.512;10.206;2023-08-12T12:26:03;21.80;99.90
45729;DHT22;31439;53.512;10.206;2023-08-12T12:28:29;21.90;99.90
45729;DHT22;31439;53.512;10.206;2023-08-12T12:30:55;21.90;99.90
45729;DHT22;31439;53.512;10.206;2023-08-12T12:33:20;21.90;99.90
45729;DHT22;31439;53.512;10.206;2023-08-12T12:35:46;21.70;99.90
45729;DHT22;31439;53.512;10.206;2023-08-12T12:38:12;21.80;99.90
45729;DHT22;31439;53.512;10.206;2023-08-12T12:40:37;21.90;99.90
45729;DHT22;31439;53.512;10.206;2023-08-12T12:43:04;21.90;99.90
45729;DHT22;31439;53.512;10.206;2023-08-12T12:45:29;22.00;99.90
45729;DHT22;31439;53.512;10.206;2023-08-12T12:47:55;22.10;99.90
45729;DHT22;31439;53.512;10.206;2023-08-12T12:50:20;22.20;99.90
45729;DHT22;31439;53.512;10.206;2023-08-12T12:52:46;22.20;99.90
45729;DHT22;31439;53.512;10.206;2023-08-12T12:55:12;22.20;99.90
45729;DHT22;31439;53.512;10.206;2023-08-12T12:57:38;22.30;99.90
45729;DHT22;31439;53.512;10.206;2023-08-12T13:00:04;22.30;99.90
45729;DHT22;31439;53.512;10.206;2023-08-12T13:02:30;22.30;99.90
45729;DHT22;31439;53.512;10.206;2023-08-12T13:04:55;22.40;99.90
45729;DHT22;31439;53.512;10.206;2023-08-12T13:07:21;22.30;99.90
45729;DHT22;31439;53.512;10.206;2023-08-12T13:09:47;22.40;99.90
45729;DHT22;31439;53.512;10.206;2023-08-12T13:12:12;22.50;99.90
45729;DHT22;31439;53.512;10.206;2023-08-12T13:14:38;22.50;99.90
45729;DHT22;31439;53.512;10.206;2023-08-12T13:17:04;22.40;99.90
45729;DHT22;31439;53.512;10.206;2023-08-12T13:19:29;22.40;99.90
45729;DHT22;31439;53.512;10.206;2023-08-12T13:21:55;22.30;99.90
45729;DHT22;31439;53.512;10.206;2023-08-12T13:24:20;22.20;99.90
45729;DHT22;31439;53.512;10.206;2023-08-12T13:26:46;22.10;99.90
45729;DHT22;31439;53.512;10.206;2023-08-12T13:29:11;22.00;99.90
45729;DHT22;31439;53.512;10.206;2023-08-12T13:31:37;21.90;99.90
45729;DHT22;31439;53.512;10.206;2023-08-12T13:34:03;21.90;99.90
45729;DHT22;31439;53.512;10.206;2023-08-12T13:36:28;21.80;99.90
45729;DHT22;31439;53.512;10.206;2023-08-12T13:38:55;21.80;99.90
45729;DHT22;31439;53.512;10.206;2023-08-12T13:41:21;21.80;99.90
45729;DHT22;31439;53.512;10.206;2023-08-12T13:43:47;21.70;99.90
45729;DHT22;31439;53.512;10.206;2023-08-12T13:46:12;21.70;99.90
45729;DHT22;31439;53.512;10.206;2023-08-12T13:48:38;21.60;99.90
45729;DHT22;31439;53.512;10.206;2023-08-12T13:51:04;21.50;99.90
45729;DHT22;31439;53.512;10.206;2023-08-12T13:53:29;21.50;99.90
45729;DHT22;31439;53.512;10.206;2023-08-12T13:55:55;21.40;99.90
45729;DHT22;31439;53.512;10.206;2023-08-12T13:58:20;21.40;99.90
45729;DHT22;31439;53.512;10.206;2023-08-12T14:00:46;21.30;99.90
45729;DHT22;31439;53.512;10.206;2023-08-12T14:03:12;21.40;99.90
45729;DHT22;31439;53.512;10.206;2023-08-12T14:05:37;21.50;99.90
45729;DHT22;31439;53.512;10.206;2023-08-12T14:08:03;21.60;99.90
45729;DHT22;31439;53.512;10.206;2023-08-12T14:10:28;21.60;99.90
45729;DHT22;31439;53.512;10.206;2023-08-12T14:12:54;21.70;99.90
45729;DHT22;31439;53.512;10.206;2023-08-12T14:15:20;21.80;99.90
45729;DHT22;31439;53.512;10.206;2023-08-12T14:17:45;21.80;99.90
45729;DHT22;31439;53.512;10.206;2023-08-12T14:20:11;21.70;99.90
45729;DHT22;31439;53.512;10.206;2023-08-12T14:22:37;21.60;99.90
45729;DHT22;31439;53.512;10.206;2023-08-12T14:25:03;21.60;99.90
45729;DHT22;31439;53.512;10.206;2023-08-12T14:27:29;21.50;99.90
45729;DHT22;31439;53.512;10.206;2023-08-12T14:29:55;21.50;99.90
45729;DHT22;31439;53.512;10.206;2023-08-12T14:32:20;21.50;99.90
45729;DHT22;31439;53.512;10.206;2023-08-12T14:34:46;21.50;99.90
45729;DHT22;31439;53.512;10.206;2023-08-12T14:37:12;21.50;99.90
45729;DHT22;31439;53.512;10.206;2023-08-12T14:39:38;21.50;99.90
45729;DHT22;31439;53.512;10.206;2023-08-12T14:42:05;21.40;99.90
45729;DHT22;31439;53.512;10.206;2023-08-12T14:44:30;21.40;99.90
45729;DHT22;31439;53.512;10.206;2023-08-12T14:46:58;21.40;99.90
45729;DHT22;31439;53.512;10.206;2023-08-12T14:49:24;21.40;99.90
45729;DHT22;31439;53.512;10.206;2023-08-12T14:51:50;21.40;99.90
45729;DHT22;31439;53.512;10.206;2023-08-12T14:54:15;21.40;99.90
45729;DHT22;31439;53.512;10.206;2023-08-12T14:56:41;21.50;99.90
45729;DHT22;31439;53.512;10.206;2023-08-12T14:59:07;21.50;99.90
45729;DHT22;31439;53.512;10.206;2023-08-12T15:01:32;21.50;99.90
45729;DHT22;31439;53.512;10.206;2023-08-12T15:03:58;21.50;99.90
45729;DHT22;31439;53.512;10.206;2023-08-12T15:06:23;21.50;99.90
45729;DHT22;31439;53.512;10.206;2023-08-12T15:08:49;21.50;99.90
45729;DHT22;31439;53.512;10.206;2023-08-12T15:11:15;21.50;99.90
45729;DHT22;31439;53.512;10.206;2023-08-12T15:13:41;21.60;99.90
45729;DHT22;31439;53.512;10.206;2023-08-12T15:16:06;21.60;99.90
45729;DHT22;31439;53.512;10.206;2023-08-12T15:18:32;21.60;99.90